Time;durP1;ratioP1;P1;durP2;ratioP2;P2;SDS_P1;SDS_P2;PMS_P1;PMS_P2;Temp;Humidity;BMP_temperature;BMP_pressure;BME280_temperature;BME280_humidity;BME280_pressure;Samples;Min_cycle;Max_cycle;Signal;HPM_P1;HPM_P2
2022/12/25 00:01:25;;;;;;;23.30;14.65;;;11.10;99.90;;;;;;5115183;28;20653;-54
2022/12/25 00:03:51;;;;;;;22.92;14.27;;;11.10;99.90;;;;;;5115112;28;20185;-53
2022/12/25 00:06:18;;;;;;;22.90;14.73;;;11.10;99.90;;;;;;5114947;28;20640;-55
2022/12/25 00:08:43;;;;;;;25.30;18.00;;;11.10;99.90;;;;;;5115179;28;20169;-55
2022/12/25 00:11:15;;;;;;;27.92;17.58;;;11.20;99.90;;;;;;5114889;28;20308;-51
2022/12/25 00:13:41;;;;;;;23.38;14.85;;;11.20;99.90;;;;;;5114704;28;20169;-52
2022/12/25 00:16:09;;;;;;;23.33;14.90;;;11.10;99.90;;;;;;5113482;28;20189;-52
2022/12/25 00:18:35;;;;;;;17.77;13.02;;;11.10;99.90;;;;;;5114742;28;20218;-50
2022/12/25 00:21:06;;;;;;;24.88;13.13;;;11.10;99.90;;;;;;5113578;28;20534;-51
2022/12/25 00:23:35;;;;;;;19.95;11.85;;;11.10;99.90;;;;;;5114844;28;20169;-51
2022/12/25 00:26:06;;;;;;;19.80;12.35;;;11.20;99.90;;;;;;5114674;27;20211;-53
2022/12/25 00:28:32;;;;;;;18.98;12.32;;;11.20;99.90;;;;;;5113326;28;20177;-51
2022/12/25 00:30:57;;;;;;;22.73;12.10;;;11.00;99.90;;;;;;5114354;28;20212;-52
2022/12/25 00:33:24;;;;;;;19.25;11.57;;;11.10;99.90;;;;;;5114670;28;20177;-52
2022/12/25 00:35:58;;;;;;;18.85;11.95;;;11.10;99.90;;;;;;5114614;28;20181;-51
2022/12/25 00:38:24;;;;;;;22.02;12.02;;;11.00;99.90;;;;;;5114468;28;20318;-51
2022/12/25 00:40:50;;;;;;;18.83;11.32;;;11.00;99.90;;;;;;5114410;28;20248;-51
2022/12/25 00:43:16;;;;;;;16.95;11.02;;;11.00;99.90;;;;;;5114671;28;20188;-50
2022/12/25 00:45:42;;;;;;;18.50;11.40;;;11.00;99.90;;;;;;5114181;28;20169;-50
2022/12/25 00:48:07;;;;;;;17.45;10.57;;;11.00;99.90;;;;;;5114145;28;20165;-51
2022/12/25 00:50:33;;;;;;;17.58;10.80;;;11.00;99.90;;;;;;5112926;28;20244;-51
2022/12/25 00:52:59;;;;;;;13.77;10.35;;;11.00;99.90;;;;;;5112967;28;20661;-54
2022/12/25 00:55:24;;;;;;;17.83;10.00;;;11.00;99.90;;;;;;5114100;28;20245;-54
2022/12/25 00:57:50;;;;;;;16.45;9.82;;;11.00;99.90;;;;;;5114109;28;20576;-51
2022/12/25 01:00:16;;;;;;;16.35;10.55;;;11.00;99.90;;;;;;5113919;28;20170;-51
2022/12/25 01:02:42;;;;;;;17.77;9.35;;;11.00;99.90;;;;;;5113975;28;20518;-51
2022/12/25 01:05:08;;;;;;;12.95;8.77;;;10.90;99.90;;;;;;5114403;28;20170;-51
2022/12/25 01:07:34;;;;;;;14.38;8.85;;;10.90;99.90;;;;;;5114038;28;20534;-52
2022/12/25 01:12:43;;;;;;;14.73;7.68;;;11.10;99.90;;;;;;5114042;28;20212;-51
2022/12/25 01:15:11;;;;;;;12.00;7.75;;;11.00;99.90;;;;;;5114036;28;20185;-53
2022/12/25 01:17:36;;;;;;;13.70;7.00;;;10.90;99.90;;;;;;5113853;28;20181;-52
2022/12/25 01:20:03;;;;;;;17.92;6.85;;;10.90;99.90;;;;;;5112609;28;20177;-52
2022/12/25 01:22:29;;;;;;;12.98;6.70;;;10.90;99.90;;;;;;5113741;28;20173;-51
2022/12/25 01:24:54;;;;;;;9.95;5.95;;;10.90;99.90;;;;;;5113672;28;20181;-51
2022/12/25 01:27:20;;;;;;;12.75;6.47;;;10.90;99.90;;;;;;5112760;28;20173;-53
2022/12/25 01:29:46;;;;;;;11.75;5.85;;;10.80;99.90;;;;;;5113715;28;20181;-50
2022/12/25 01:32:12;;;;;;;14.98;6.35;;;10.90;99.90;;;;;;5113699;28;20292;-50
2022/12/25 01:34:38;;;;;;;11.80;6.05;;;11.00;99.90;;;;;;5113530;28;20201;-53
2022/12/25 01:37:03;;;;;;;10.05;5.70;;;10.90;99.90;;;;;;5113577;28;20219;-53
2022/12/25 01:39:29;;;;;;;10.40;5.57;;;10.90;99.90;;;;;;5113540;28;20539;-51
2022/12/25 01:41:55;;;;;;;11.73;5.45;;;10.90;99.90;;;;;;5113551;28;20201;-51
2022/12/25 01:44:36;;;;;;;11.35;5.75;;;10.90;99.90;;;;;;5113749;28;20166;-53
2022/12/25 01:47:03;;;;;;;11.32;5.63;;;10.90;99.90;;;;;;5113429;28;20179;-52
2022/12/25 01:49:30;;;;;;;14.70;5.90;;;10.80;99.90;;;;;;5113572;28;20226;-51
2022/12/25 01:52:09;;;;;;;12.10;5.60;;;10.80;99.90;;;;;;5113291;28;20204;-51
2022/12/25 01:54:51;;;;;;;7.70;5.00;;;10.90;99.90;;;;;;5113373;28;20176;-51
2022/12/25 01:57:23;;;;;;;10.27;5.40;;;10.90;99.90;;;;;;5113635;28;20172;-52
2022/12/25 01:59:49;;;;;;;11.38;5.25;;;10.80;99.90;;;;;;5113535;28;20172;-51
2022/12/25 02:02:15;;;;;;;10.10;5.10;;;10.80;99.90;;;;;;5113635;28;20173;-51
2022/12/25 02:04:53;;;;;;;8.88;5.20;;;10.80;99.90;;;;;;5113334;28;20169;-50
2022/12/25 02:07:21;;;;;;;7.22;5.05;;;10.90;99.90;;;;;;5113901;28;20713;-51
2022/12/25 02:09:47;;;;;;;10.63;5.43;;;10.80;99.90;;;;;;5113427;28;20176;-51
2022/12/25 02:12:21;;;;;;;11.30;5.50;;;10.80;99.90;;;;;;5111849;28;20227;-52
2022/12/25 02:14:49;;;;;;;9.45;5.65;;;10.80;99.90;;;;;;5113330;28;20170;-50
2022/12/25 02:17:37;;;;;;;10.43;4.90;;;10.90;99.90;;;;;;5111801;28;20177;-52
2022/12/25 02:20:22;;;;;;;10.60;5.32;;;10.90;99.90;;;;;;5113415;28;20169;-51
2022/12/25 02:23:07;;;;;;;11.85;5.72;;;10.90;99.90;;;;;;5113277;28;20161;-53
2022/12/25 02:25:42;;;;;;;10.95;5.55;;;10.90;99.90;;;;;;5113038;28;20257;-50
2022/12/25 02:28:14;;;;;;;10.10;5.50;;;10.90;99.90;;;;;;5113261;28;20626;-51
2022/12/25 02:30:45;;;;;;;10.88;5.80;;;10.80;99.90;;;;;;5111884;28;20209;-52
2022/12/25 02:36:09;;;;;;;10.38;5.70;;;10.90;99.90;;;;;;5113249;28;20185;-53
2022/12/25 02:39:56;;;;;;;10.88;6.00;;;10.90;99.90;;;;;;5113497;28;20161;-51
2022/12/25 02:41:32;;;;;;;11.40;5.60;;;10.90;99.90;;;;;;5116744;28;20189;-52
2022/12/25 03:06:42;;;;;;;8.40;4.00;;;10.50;99.90;;;;;;5116219;28;20191;-53
2022/12/25 03:12:30;;;;;;;8.00;4.05;;;10.50;99.90;;;;;;5116325;28;20742;-53
2022/12/25 03:17:40;;;;;;;7.32;3.42;;;10.60;99.90;;;;;;5116255;28;20235;-54
2022/12/25 03:28:20;;;;;;;5.55;3.13;;;10.50;99.90;;;;;;5115986;28;20698;-53
2022/12/25 03:31:10;;;;;;;6.95;3.53;;;10.60;99.90;;;;;;5115807;28;20213;-53
2022/12/25 03:36:47;;;;;;;5.97;3.08;;;10.50;99.90;;;;;;5115620;28;20180;-54
2022/12/25 04:38:05;;;;;;;6.45;2.92;;;10.60;99.90;;;;;;5114697;28;20251;-51
2022/12/25 04:40:30;;;;;;;3.85;2.85;;;10.60;99.90;;;;;;5113005;28;20198;-50
2022/12/25 04:42:56;;;;;;;6.93;3.30;;;10.70;99.90;;;;;;5114488;28;20212;-52
2022/12/25 04:45:21;;;;;;;5.10;2.92;;;10.70;99.90;;;;;;5114223;28;20173;-53
2022/12/25 04:47:47;;;;;;;7.18;2.95;;;10.70;99.90;;;;;;5114437;28;20173;-50
2022/12/25 04:50:13;;;;;;;5.68;3.38;;;10.80;99.90;;;;;;5114274;28;20173;-50
2022/12/25 04:52:40;;;;;;;7.53;3.40;;;10.80;99.90;;;;;;5113916;28;20689;-50
2022/12/25 04:55:07;;;;;;;7.75;3.42;;;10.80;99.90;;;;;;5114080;28;20653;-50
2022/12/25 04:57:33;;;;;;;6.57;3.47;;;10.70;99.90;;;;;;5114108;28;20166;-51
2022/12/25 04:59:59;;;;;;;12.20;3.47;;;10.70;99.90;;;;;;5113895;28;20175;-51
2022/12/25 05:02:25;;;;;;;7.03;3.30;;;10.70;99.90;;;;;;5114015;28;20169;-50
2022/12/25 05:04:50;;;;;;;9.80;3.58;;;10.70;99.90;;;;;;5114074;28;20173;-50
2022/12/25 05:07:16;;;;;;;9.65;3.40;;;10.80;99.90;;;;;;5114075;28;20196;-51
2022/12/25 05:09:42;;;;;;;5.72;3.05;;;10.80;99.90;;;;;;5112791;28;20191;-50
2022/12/25 05:12:08;;;;;;;7.40;3.40;;;10.80;99.90;;;;;;5113703;28;20252;-52
2022/12/25 05:14:34;;;;;;;8.65;3.58;;;10.80;99.90;;;;;;5113664;28;20169;-50
2022/12/25 05:17:00;;;;;;;10.00;3.53;;;10.80;99.90;;;;;;5114039;28;20173;-50
2022/12/25 05:19:26;;;;;;;5.93;3.40;;;10.90;99.90;;;;;;5113756;28;20177;-50
2022/12/25 05:21:52;;;;;;;7.63;3.60;;;10.80;99.90;;;;;;5113805;28;20173;-50
2022/12/25 05:24:18;;;;;;;9.13;3.70;;;10.80;99.90;;;;;;5113803;28;20256;-51
2022/12/25 05:26:44;;;;;;;7.28;3.67;;;10.80;99.90;;;;;;5113687;28;20842;-53
2022/12/25 05:29:09;;;;;;;7.57;3.72;;;10.70;99.90;;;;;;5112552;28;20227;-52
2022/12/25 05:31:35;;;;;;;5.57;3.58;;;10.70;99.90;;;;;;5112374;28;20209;-51
2022/12/25 05:34:01;;;;;;;8.43;3.50;;;10.70;99.90;;;;;;5113202;28;20177;-51
2022/12/25 05:36:26;;;;;;;6.80;3.83;;;10.80;99.90;;;;;;5113572;28;20176;-51
2022/12/25 05:38:53;;;;;;;6.07;3.53;;;10.80;99.90;;;;;;5113697;28;20234;-50
2022/12/25 05:41:18;;;;;;;6.45;3.47;;;10.80;99.90;;;;;;5113039;28;20276;-51
2022/12/25 05:43:44;;;;;;;7.15;3.35;;;10.80;99.90;;;;;;5112709;28;20318;-51
2022/12/25 05:46:11;;;;;;;8.25;4.00;;;10.80;99.90;;;;;;5112674;28;20365;-51
2022/12/25 05:48:37;;;;;;;8.13;3.70;;;10.90;99.90;;;;;;5113111;28;20639;-50
2022/12/25 05:51:05;;;;;;;6.43;3.65;;;11.00;99.90;;;;;;5113483;28;20254;-50
2022/12/25 05:53:38;;;;;;;9.13;3.70;;;10.90;99.90;;;;;;5113462;28;20182;-51
2022/12/25 05:56:05;;;;;;;6.13;3.60;;;10.90;99.90;;;;;;5113276;28;20166;-51
2022/12/25 05:58:32;;;;;;;6.10;3.45;;;10.90;99.90;;;;;;5113321;28;20191;-50
2022/12/25 06:00:58;;;;;;;5.82;3.92;;;10.90;99.90;;;;;;5112194;28;20574;-50
2022/12/25 06:03:25;;;;;;;6.80;3.90;;;10.90;99.90;;;;;;5113425;28;20253;-54
2022/12/25 06:05:51;;;;;;;7.03;4.13;;;10.90;99.90;;;;;;5113253;28;20557;-52
2022/12/25 06:08:17;;;;;;;8.20;3.70;;;10.90;99.90;;;;;;5113322;28;20169;-50
2022/12/25 06:10:42;;;;;;;10.02;4.10;;;11.00;99.90;;;;;;5113055;28;20205;-53
2022/12/25 06:13:08;;;;;;;8.45;4.43;;;11.00;99.90;;;;;;5112048;28;20257;-50
2022/12/25 06:15:36;;;;;;;6.55;3.60;;;10.90;99.90;;;;;;5116643;28;20173;-52
2022/12/25 06:18:02;;;;;;;6.20;4.00;;;10.90;99.90;;;;;;5116141;28;20542;-50
2022/12/25 06:20:29;;;;;;;6.40;3.75;;;11.00;99.90;;;;;;5117285;28;20177;-53
2022/12/25 06:22:54;;;;;;;6.97;3.83;;;11.00;99.90;;;;;;5116995;28;20616;-52
2022/12/25 06:25:20;;;;;;;6.30;3.95;;;11.00;99.90;;;;;;5116904;28;20204;-54
2022/12/25 06:27:46;;;;;;;7.32;3.45;;;11.00;99.90;;;;;;5117123;28;20177;-53
2022/12/25 06:30:11;;;;;;;7.90;4.00;;;11.00;99.90;;;;;;5117077;28;20177;-53
2022/12/25 06:32:37;;;;;;;7.55;4.13;;;11.00;99.90;;;;;;5116949;28;20205;-53
2022/12/25 06:35:03;;;;;;;8.15;3.90;;;11.00;99.90;;;;;;5098538;28;20181;-53
2022/12/25 06:37:29;;;;;;;5.95;4.10;;;11.00;99.90;;;;;;5116791;28;20184;-54
2022/12/25 06:39:55;;;;;;;6.25;3.83;;;11.00;99.90;;;;;;5116947;28;20178;-53
2022/12/25 06:42:24;;;;;;;8.05;3.90;;;11.00;99.90;;;;;;5116787;28;20199;-53
2022/12/25 06:44:50;;;;;;;5.53;4.22;;;11.00;99.90;;;;;;5116714;28;20184;-50
2022/12/25 06:47:16;;;;;;;10.60;4.13;;;11.00;99.90;;;;;;5116784;28;20165;-53
2022/12/25 06:49:41;;;;;;;4.03;3.60;;;11.00;99.90;;;;;;5116620;28;20174;-54
2022/12/25 06:52:07;;;;;;;5.72;3.70;;;10.90;99.90;;;;;;5115331;28;20693;-54
2022/12/25 06:54:33;;;;;;;5.10;3.50;;;10.90;99.90;;;;;;5116377;28;20215;-53
2022/12/25 06:56:59;;;;;;;7.35;4.20;;;10.90;99.90;;;;;;5116578;28;20226;-53
2022/12/25 06:59:25;;;;;;;5.32;3.60;;;10.90;99.90;;;;;;5116539;28;20182;-54
2022/12/25 07:01:56;;;;;;;6.45;4.32;;;10.90;99.90;;;;;;5116395;28;20567;-54
2022/12/25 07:04:32;;;;;;;4.45;3.80;;;10.90;99.90;;;;;;5116209;28;20265;-52
2022/12/25 07:06:58;;;;;;;7.70;3.97;;;10.90;99.90;;;;;;5116186;28;20499;-52
2022/12/25 07:09:24;;;;;;;3.90;3.40;;;10.90;99.90;;;;;;5116335;28;20193;-56
2022/12/25 07:11:50;;;;;;;5.72;3.90;;;10.90;99.90;;;;;;5116363;28;20686;-53
2022/12/25 07:14:18;;;;;;;6.50;3.83;;;10.90;99.90;;;;;;5116336;28;20169;-53
2022/12/25 07:16:44;;;;;;;7.18;3.70;;;10.90;99.90;;;;;;5116040;28;20165;-53
2022/12/25 07:19:10;;;;;;;5.13;3.28;;;10.90;99.90;;;;;;5115941;28;20311;-54
2022/12/25 07:21:35;;;;;;;5.10;3.38;;;10.90;99.90;;;;;;5114562;28;20185;-52
2022/12/25 07:24:01;;;;;;;4.55;3.60;;;10.90;99.90;;;;;;5116101;28;20174;-53
2022/12/25 07:26:27;;;;;;;6.40;3.70;;;10.90;99.90;;;;;;5115960;28;20166;-55
2022/12/25 07:28:54;;;;;;;6.22;3.78;;;10.80;99.90;;;;;;5115714;28;20242;-53
2022/12/25 07:31:20;;;;;;;5.28;3.50;;;10.80;99.90;;;;;;5115793;28;20189;-54
2022/12/25 07:33:46;;;;;;;4.65;3.65;;;10.90;99.90;;;;;;5114521;28;20183;-53
2022/12/25 07:36:14;;;;;;;5.78;3.85;;;10.90;99.90;;;;;;5115609;28;20198;-54
2022/12/25 07:38:43;;;;;;;7.20;5.38;;;10.90;99.90;;;;;;5115224;28;20177;-53
2022/12/25 07:41:10;;;;;;;12.38;11.13;;;11.00;99.90;;;;;;5115746;28;20201;-54
2022/12/25 07:43:36;;;;;;;10.43;9.20;;;11.00;99.90;;;;;;5115590;28;20267;-54
2022/12/25 07:46:01;;;;;;;8.57;6.35;;;11.00;99.90;;;;;;5115409;27;20669;-56
2022/12/25 07:48:28;;;;;;;8.15;6.13;;;11.00;99.90;;;;;;5115248;28;20173;-56
2022/12/25 07:50:59;;;;;;;8.75;5.45;;;11.00;99.90;;;;;;5114248;28;20208;-54
2022/12/25 07:53:25;;;;;;;7.03;4.95;;;10.90;99.90;;;;;;5115381;28;20179;-55
2022/12/25 07:56:03;;;;;;;5.82;4.85;;;10.90;99.90;;;;;;5111109;28;20189;-54
2022/12/25 07:58:29;;;;;;;6.75;4.50;;;10.90;99.90;;;;;;5113474;28;20173;-53
2022/12/25 08:01:02;;;;;;;10.70;4.88;;;10.90;99.90;;;;;;5113229;28;20185;-53
2022/12/25 08:03:28;;;;;;;6.05;4.78;;;10.90;99.90;;;;;;5114834;28;20256;-53
2022/12/25 08:05:53;;;;;;;7.30;4.07;;;10.80;99.90;;;;;;5113274;28;20260;-54
2022/12/25 08:08:19;;;;;;;5.97;4.30;;;10.80;99.90;;;;;;5114817;28;20598;-53
2022/12/25 08:10:46;;;;;;;4.30;3.90;;;10.80;99.90;;;;;;5111029;28;21334;-53
2022/12/25 08:13:12;;;;;;;7.32;4.10;;;10.80;99.90;;;;;;5114203;28;20181;-56
2022/12/25 08:15:39;;;;;;;7.40;4.35;;;10.80;99.90;;;;;;5114660;28;20638;-56
2022/12/25 08:18:05;;;;;;;5.82;4.80;;;10.80;99.90;;;;;;5113595;28;20527;-59
2022/12/25 08:20:31;;;;;;;7.40;4.20;;;10.90;99.90;;;;;;5110738;28;20181;-53
2022/12/25 08:22:56;;;;;;;6.78;4.65;;;10.90;99.90;;;;;;5113153;28;20181;-55
2022/12/25 08:25:22;;;;;;;7.07;5.00;;;10.90;99.90;;;;;;5114491;28;20542;-51
2022/12/25 08:27:47;;;;;;;10.93;9.82;;;10.90;99.90;;;;;;5114388;28;20181;-54
2022/12/25 08:30:13;;;;;;;23.50;21.08;;;10.90;99.90;;;;;;5111343;28;20214;-54
2022/12/25 08:32:39;;;;;;;10.65;9.55;;;10.90;99.90;;;;;;5091919;28;20205;-54
2022/12/25 08:35:05;;;;;;;8.02;7.18;;;11.00;99.90;;;;;;5093668;28;20182;-54
2022/12/25 08:37:31;;;;;;;9.93;6.50;;;11.00;99.90;;;;;;5094043;28;20170;-53
2022/12/25 08:39:56;;;;;;;7.47;5.50;;;11.00;99.90;;;;;;5113987;27;20200;-52
2022/12/25 08:42:22;;;;;;;7.70;5.70;;;11.00;99.90;;;;;;5114382;28;20185;-53
2022/12/25 08:44:48;;;;;;;8.38;5.40;;;10.90;99.90;;;;;;5112625;28;20189;-54
2022/12/25 08:47:13;;;;;;;6.13;5.45;;;11.00;99.90;;;;;;5114226;28;20274;-51
2022/12/25 08:49:39;;;;;;;7.70;5.25;;;11.00;99.90;;;;;;5114184;28;20544;-54
2022/12/25 08:52:04;;;;;;;11.43;5.95;;;11.00;99.90;;;;;;5114024;28;20211;-54
2022/12/25 08:54:32;;;;;;;8.25;5.53;;;11.00;99.90;;;;;;5109336;28;20177;-50
2022/12/25 08:56:58;;;;;;;9.40;6.13;;;11.00;99.90;;;;;;5112791;28;20181;-53
2022/12/25 08:59:24;;;;;;;8.05;6.35;;;11.00;99.90;;;;;;5114060;28;20181;-56
2022/12/25 09:01:49;;;;;;;9.18;5.78;;;11.10;99.90;;;;;;5113662;28;20188;-52
2022/12/25 09:04:15;;;;;;;8.38;5.88;;;11.10;99.90;;;;;;5114050;28;20176;-54
2022/12/25 09:06:41;;;;;;;8.32;5.80;;;11.10;99.90;;;;;;5114345;28;20169;-52
2022/12/25 09:09:06;;;;;;;8.35;6.50;;;11.10;99.90;;;;;;5114353;28;20196;-54
2022/12/25 09:11:32;;;;;;;8.60;6.55;;;11.00;99.90;;;;;;5114503;28;20209;-55
2022/12/25 09:13:58;;;;;;;10.52;6.90;;;11.00;99.90;;;;;;5112908;28;20655;-55
2022/12/25 09:16:24;;;;;;;10.20;6.90;;;11.10;99.90;;;;;;5112423;28;20208;-56
2022/12/25 09:18:50;;;;;;;8.10;7.05;;;11.10;99.90;;;;;;5114540;28;20523;-55
2022/12/25 09:21:17;;;;;;;7.95;6.30;;;11.10;99.90;;;;;;5114437;28;20173;-54
2022/12/25 09:23:44;;;;;;;12.45;6.97;;;11.10;99.90;;;;;;5113118;28;20226;-56
2022/12/25 09:26:13;;;;;;;8.45;6.53;;;11.10;99.90;;;;;;5111408;28;20177;-55
2022/12/25 09:28:39;;;;;;;7.88;6.25;;;11.10;99.90;;;;;;5112566;28;20200;-54
2022/12/25 09:31:04;;;;;;;9.23;6.50;;;11.10;99.90;;;;;;5113587;28;20625;-54
2022/12/25 09:33:30;;;;;;;8.85;6.40;;;11.10;99.90;;;;;;5112627;28;20174;-54
2022/12/25 09:35:59;;;;;;;6.65;5.97;;;11.10;99.90;;;;;;5113849;28;20174;-53
2022/12/25 09:38:25;;;;;;;6.90;6.15;;;11.10;99.90;;;;;;5113765;28;20259;-56
2022/12/25 09:41:34;;;;;;;7.47;6.03;;;11.10;99.90;;;;;;5113962;28;20587;-57
2022/12/25 09:44:05;;;;;;;8.68;5.90;;;11.10;99.90;;;;;;5083564;28;20193;-52
2022/12/25 09:47:11;;;;;;;8.70;6.60;;;11.10;99.90;;;;;;5112702;28;20177;-54
2022/12/25 09:49:56;;;;;;;8.90;7.15;;;11.20;99.90;;;;;;5081013;28;20269;-53
2022/12/25 09:52:37;;;;;;;12.30;10.80;;;11.10;99.90;;;;;;5116677;28;20296;-54
2022/12/25 09:55:07;;;;;;;13.13;10.98;;;11.20;99.90;;;;;;5117475;28;20187;-51
2022/12/25 09:57:33;;;;;;;8.52;7.75;;;11.10;99.90;;;;;;5117280;28;20166;-54
2022/12/25 09:59:58;;;;;;;11.07;7.60;;;11.20;99.90;;;;;;5082257;28;20526;-53
2022/12/25 10:02:39;;;;;;;7.90;7.10;;;11.20;99.90;;;;;;5116786;28;20209;-58
2022/12/25 10:05:27;;;;;;;8.57;7.78;;;11.20;99.90;;;;;;5115677;28;20649;-59
2022/12/25 10:08:18;;;;;;;12.50;9.18;;;11.30;99.90;;;;;;5115373;28;20214;-54
2022/12/25 10:11:08;;;;;;;9.82;8.52;;;11.20;99.90;;;;;;5116893;28;20706;-55
2022/12/25 10:13:49;;;;;;;9.98;8.35;;;11.30;99.90;;;;;;5117466;28;20212;-55
2022/12/25 10:16:53;;;;;;;9.18;8.27;;;11.20;99.90;;;;;;5117388;28;20185;-55
2022/12/25 10:20:02;;;;;;;9.50;8.15;;;11.20;99.90;;;;;;5071068;28;20179;-55
2022/12/25 10:22:39;;;;;;;11.23;8.80;;;11.20;99.90;;;;;;5043726;28;20195;-54
2022/12/25 10:25:08;;;;;;;8.88;6.88;;;11.10;99.90;;;;;;5106551;28;20230;-54
2022/12/25 10:27:40;;;;;;;8.43;7.38;;;11.10;99.90;;;;;;5116774;28;20540;-55
2022/12/25 10:30:14;;;;;;;10.30;8.30;;;11.20;99.90;;;;;;5116665;28;20329;-53
2022/12/25 10:32:40;;;;;;;8.98;7.95;;;11.10;99.90;;;;;;5116887;28;20211;-55
2022/12/25 10:35:11;;;;;;;10.93;9.18;;;11.20;99.90;;;;;;5115722;28;20182;-55
2022/12/25 10:37:37;;;;;;;13.30;9.50;;;11.20;99.90;;;;;;5116838;28;20217;-53
2022/12/25 10:40:34;;;;;;;10.25;9.20;;;11.20;99.90;;;;;;5116921;28;20165;-55
2022/12/25 10:43:20;;;;;;;15.73;10.65;;;11.20;99.90;;;;;;5115760;28;20656;-55
2022/12/25 10:45:47;;;;;;;11.70;8.90;;;11.20;99.90;;;;;;5115367;28;20169;-59
2022/12/25 10:48:26;;;;;;;12.35;10.45;;;11.20;99.90;;;;;;5115384;28;20598;-54
2022/12/25 10:50:52;;;;;;;11.82;8.98;;;11.20;99.90;;;;;;5097233;28;20679;-54
2022/12/25 10:53:26;;;;;;;10.40;8.82;;;11.20;99.90;;;;;;5114199;28;20208;-54
2022/12/25 10:56:00;;;;;;;11.55;9.65;;;11.30;99.90;;;;;;5113953;28;20157;-55
2022/12/25 10:58:26;;;;;;;10.98;8.70;;;11.30;99.90;;;;;;5114088;28;20170;-54
2022/12/25 11:01:00;;;;;;;14.38;9.10;;;11.30;99.90;;;;;;5115068;28;20170;-54
2022/12/25 11:03:30;;;;;;;9.20;8.18;;;11.30;99.90;;;;;;5115341;28;20640;-55
2022/12/25 11:05:56;;;;;;;11.20;10.15;;;11.30;99.90;;;;;;5114018;28;20615;-53
2022/12/25 11:08:25;;;;;;;14.25;11.80;;;11.40;99.90;;;;;;5113970;28;20169;-56
2022/12/25 11:10:55;;;;;;;11.15;10.07;;;11.40;99.90;;;;;;5114737;28;20192;-54
2022/12/25 11:13:31;;;;;;;12.23;10.23;;;11.40;99.90;;;;;;5115311;28;20166;-55
2022/12/25 11:16:08;;;;;;;11.77;10.23;;;11.40;99.90;;;;;;5113933;28;20169;-55
2022/12/25 11:18:48;;;;;;;13.35;11.93;;;11.40;99.90;;;;;;5115032;28;20192;-53
2022/12/25 11:21:18;;;;;;;12.38;10.98;;;11.30;99.90;;;;;;5114706;28;20188;-53
2022/12/25 11:23:49;;;;;;;15.13;12.23;;;11.40;99.90;;;;;;5114917;28;20184;-52
2022/12/25 11:26:17;;;;;;;14.88;12.85;;;11.40;99.90;;;;;;5114828;28;20157;-54
2022/12/25 11:28:44;;;;;;;13.43;12.10;;;11.30;99.90;;;;;;5114840;28;20476;-53
2022/12/25 11:31:19;;;;;;;12.02;10.82;;;11.30;99.90;;;;;;5114433;28;20228;-54
2022/12/25 11:33:50;;;;;;;13.05;11.75;;;11.30;99.90;;;;;;5114414;28;20168;-53
2022/12/25 11:36:33;;;;;;;13.10;11.02;;;11.30;99.90;;;;;;5114705;28;20165;-52
2022/12/25 11:39:13;;;;;;;15.57;12.45;;;11.40;99.90;;;;;;5114626;28;20168;-54
2022/12/25 11:41:40;;;;;;;11.77;10.68;;;11.40;99.90;;;;;;5074028;28;1138440;-54
2022/12/25 11:44:26;;;;;;;14.65;11.10;;;11.40;99.90;;;;;;5115184;28;20177;-53
2022/12/25 11:46:54;;;;;;;11.50;10.30;;;11.40;99.90;;;;;;5115716;28;20157;-52
2022/12/25 11:49:21;;;;;;;16.58;12.05;;;11.30;99.90;;;;;;5115505;28;20218;-51
2022/12/25 11:51:52;;;;;;;15.23;13.40;;;11.30;99.90;;;;;;5113908;28;20208;-54
2022/12/25 11:54:30;;;;;;;15.07;13.30;;;11.40;99.90;;;;;;5115768;28;20591;-51
2022/12/25 11:57:01;;;;;;;16.85;13.82;;;11.40;99.90;;;;;;5115477;28;20157;-52
2022/12/25 11:59:33;;;;;;;17.58;13.98;;;11.40;99.90;;;;;;5115424;28;20171;-50
2022/12/25 12:02:24;;;;;;;17.23;15.40;;;11.40;99.90;;;;;;5115344;28;20219;-55
2022/12/25 12:05:02;;;;;;;17.00;13.93;;;11.40;99.90;;;;;;5114974;28;20199;-51
2022/12/25 12:07:30;;;;;;;14.80;12.32;;;11.40;99.90;;;;;;5115136;28;20190;-53
2022/12/25 12:10:20;;;;;;;15.35;12.95;;;11.30;99.90;;;;;;5115075;28;20192;-51
2022/12/25 12:13:01;;;;;;;14.60;12.77;;;11.40;99.90;;;;;;5113947;28;20652;-51
2022/12/25 12:15:45;;;;;;;14.20;12.77;;;11.40;99.90;;;;;;5113453;28;20185;-50
2022/12/25 12:18:26;;;;;;;15.85;14.00;;;11.30;99.90;;;;;;5114899;28;20682;-53
2022/12/25 12:21:27;;;;;;;16.50;13.32;;;11.40;99.90;;;;;;5114846;28;20629;-54
2022/12/25 12:24:00;;;;;;;16.20;14.02;;;11.40;99.90;;;;;;5114549;28;20169;-54
2022/12/25 12:26:27;;;;;;;49.15;20.02;;;11.40;99.90;;;;;;5113767;28;20165;-53
2022/12/25 12:28:58;;;;;;;14.07;12.68;;;11.50;99.90;;;;;;5114679;28;20166;-53
2022/12/25 12:31:34;;;;;;;15.43;13.73;;;11.50;99.90;;;;;;5114332;27;20203;-54
2022/12/25 12:34:01;;;;;;;16.02;14.32;;;11.50;99.90;;;;;;5114345;28;20724;-55
2022/12/25 12:36:27;;;;;;;15.05;13.35;;;11.50;99.90;;;;;;5114553;28;20168;-54
2022/12/25 12:38:55;;;;;;;17.15;13.95;;;11.50;99.90;;;;;;5114551;28;20191;-53
2022/12/25 12:41:24;;;;;;;14.02;12.57;;;11.50;99.90;;;;;;5114326;28;20177;-51
2022/12/25 12:43:57;;;;;;;18.77;14.10;;;11.60;99.90;;;;;;5114420;28;20271;-55
2022/12/25 12:46:28;;;;;;;14.52;13.07;;;11.60;99.90;;;;;;5114424;28;20189;-54
2022/12/25 12:49:11;;;;;;;15.25;13.77;;;11.50;99.90;;;;;;5114689;28;20211;-54
2022/12/25 12:51:37;;;;;;;14.15;12.70;;;11.60;99.90;;;;;;5114253;28;20229;-54
2022/12/25 12:54:25;;;;;;;14.63;13.13;;;11.60;99.90;;;;;;5114482;28;20173;-54
2022/12/25 12:56:57;;;;;;;15.00;13.63;;;11.60;99.90;;;;;;5114261;28;20161;-54
2022/12/25 12:59:24;;;;;;;15.10;13.70;;;11.60;99.90;;;;;;5114216;28;20162;-54
2022/12/25 13:02:07;;;;;;;14.75;13.35;;;11.60;99.90;;;;;;5112806;28;20165;-55
2022/12/25 13:04:45;;;;;;;15.85;14.13;;;11.50;99.90;;;;;;5113001;28;20179;-54
2022/12/25 13:07:42;;;;;;;16.02;14.20;;;11.50;99.90;;;;;;5112799;28;20562;-56
2022/12/25 13:10:33;;;;;;;15.50;13.65;;;11.50;99.90;;;;;;5113003;28;20249;-55
2022/12/25 13:13:11;;;;;;;16.40;14.38;;;11.50;99.90;;;;;;5113928;28;20562;-54
2022/12/25 13:15:37;;;;;;;17.65;15.75;;;11.50;99.90;;;;;;5112629;28;20169;-57
2022/12/25 13:18:09;;;;;;;15.18;13.68;;;11.40;99.90;;;;;;5113830;28;20172;-54
2022/12/25 13:20:53;;;;;;;14.15;12.68;;;11.40;99.90;;;;;;5112957;28;20177;-55
2022/12/25 13:23:28;;;;;;;15.98;14.30;;;11.40;99.90;;;;;;5112487;28;20173;-54
2022/12/25 13:26:15;;;;;;;15.02;13.55;;;11.50;99.90;;;;;;5113635;28;20494;-55
2022/12/25 13:28:41;;;;;;;20.25;15.80;;;11.50;99.90;;;;;;5113768;28;20164;-55
2022/12/25 13:31:20;;;;;;;14.98;13.57;;;11.50;99.90;;;;;;5113615;28;20546;-54
2022/12/25 13:34:17;;;;;;;14.70;13.20;;;11.50;99.90;;;;;;5112488;28;20305;-54
2022/12/25 13:36:43;;;;;;;16.70;14.27;;;11.40;99.90;;;;;;5112952;28;20633;-52
2022/12/25 13:39:15;;;;;;;15.27;13.80;;;11.40;99.90;;;;;;5113781;28;20166;-56
2022/12/25 13:42:04;;;;;;;15.13;13.20;;;11.40;99.90;;;;;;5113455;28;20185;-54
2022/12/25 13:44:46;;;;;;;16.45;13.05;;;11.30;99.90;;;;;;5112287;28;20177;-54
2022/12/25 13:47:24;;;;;;;13.18;11.88;;;11.30;99.90;;;;;;5113386;28;20165;-54
2022/12/25 13:49:53;;;;;;;13.82;12.18;;;11.30;99.90;;;;;;5113503;28;20195;-52
2022/12/25 13:52:34;;;;;;;12.88;11.57;;;11.40;99.90;;;;;;5113291;28;20232;-54
2022/12/25 13:55:14;;;;;;;12.38;11.18;;;11.30;99.90;;;;;;5113427;28;20218;-55
2022/12/25 13:57:43;;;;;;;12.52;11.23;;;11.30;99.90;;;;;;5113457;28;20169;-52
2022/12/25 14:00:31;;;;;;;15.75;13.02;;;11.30;99.90;;;;;;5113424;28;20165;-55
2022/12/25 14:02:57;;;;;;;13.85;12.48;;;11.30;99.90;;;;;;5113344;28;20178;-55
2022/12/25 14:05:32;;;;;;;13.68;12.27;;;11.30;99.90;;;;;;5113188;28;20166;-53
2022/12/25 14:08:01;;;;;;;31.58;24.92;;;11.30;99.90;;;;;;5113011;28;20526;-55
2022/12/25 14:10:30;;;;;;;14.90;13.35;;;11.30;99.90;;;;;;5113199;28;20162;-57
2022/12/25 14:12:58;;;;;;;12.30;11.23;;;11.20;99.90;;;;;;5113203;28;20343;-56
2022/12/25 14:15:27;;;;;;;18.15;13.82;;;11.30;99.90;;;;;;5113478;28;20172;-56
2022/12/25 14:17:52;;;;;;;13.48;12.07;;;11.30;99.90;;;;;;5113116;28;20157;-56
2022/12/25 14:20:32;;;;;;;14.18;12.75;;;11.30;99.90;;;;;;5113074;28;20510;-52
2022/12/25 14:22:59;;;;;;;27.25;24.75;;;11.30;99.90;;;;;;5113481;28;20637;-53
2022/12/25 14:25:30;;;;;;;12.90;11.57;;;11.40;99.90;;;;;;5113157;28;20202;-52
2022/12/25 14:27:56;;;;;;;16.77;15.05;;;11.30;99.90;;;;;;5112952;28;20173;-53
2022/12/25 14:30:26;;;;;;;21.33;19.33;;;11.20;99.90;;;;;;5112970;28;20177;-56
2022/12/25 14:32:53;;;;;;;16.70;15.40;;;11.30;99.90;;;;;;5112751;28;20201;-53
2022/12/25 14:35:20;;;;;;;15.68;14.07;;;11.30;99.90;;;;;;5114475;28;20169;-55
2022/12/25 14:37:49;;;;;;;11.93;10.85;;;11.20;99.90;;;;;;5116736;28;20184;-55
2022/12/25 14:40:23;;;;;;;12.60;11.48;;;11.10;99.90;;;;;;5116656;28;20199;-55